Time;durP1;ratioP1;P1;durP2;ratioP2;P2;SDS_P1;SDS_P2;PMS_P1;PMS_P2;Temp;Humidity;BMP_temperature;BMP_pressure;BME280_temperature;BME280_humidity;BME280_pressure;Samples;Min_cycle;Max_cycle;Signal;HPM_P1;HPM_P2
2023/06/19 00:00:13;;;;;;;11.07;9.95;;;20.90;97.70;;;;;;5058343;28;20044;-80
2023/06/19 00:02:40;;;;;;;10.25;9.25;;;20.90;95.90;;;;;;5042281;28;20396;-79
2023/06/19 00:05:07;;;;;;;11.77;10.30;;;21.00;98.00;;;;;;5058405;28;20040;-79
2023/06/19 00:07:34;;;;;;;13.90;9.80;;;20.60;98.60;;;;;;5058065;28;20060;-78
2023/06/19 00:09:59;;;;;;;11.05;9.95;;;20.80;97.40;;;;;;5042217;28;20577;-82
2023/06/19 00:12:25;;;;;;;10.75;9.65;;;20.60;98.40;;;;;;5058850;28;20048;-83
2023/06/19 00:14:51;;;;;;;10.70;9.55;;;20.60;98.40;;;;;;5058656;28;20040;-84
2023/06/19 00:17:16;;;;;;;11.18;9.40;;;20.80;98.60;;;;;;5025195;28;20487;-85
2023/06/19 00:19:43;;;;;;;12.20;9.88;;;20.80;99.20;;;;;;5041770;28;20044;-83
2023/06/19 00:22:09;;;;;;;11.45;10.25;;;20.80;97.40;;;;;;5076393;28;20040;-80
2023/06/19 00:24:34;;;;;;;14.02;11.55;;;20.70;97.10;;;;;;5041752;28;20047;-80
2023/06/19 00:27:02;;;;;;;11.77;10.30;;;20.80;97.10;;;;;;5058200;28;20489;-83
2023/06/19 00:29:31;;;;;;;12.52;9.82;;;20.80;98.60;;;;;;5058106;28;20083;-81
2023/06/19 00:31:57;;;;;;;11.00;8.57;;;;;;;;;;5075900;28;20063;-80
2023/06/19 00:34:24;;;;;;;13.00;9.35;;;20.80;95.80;;;;;;5058438;28;20052;-84
2023/06/19 00:36:51;;;;;;;13.85;9.82;;;20.80;98.00;;;;;;5057766;28;20080;-84
2023/06/19 00:39:17;;;;;;;9.88;8.65;;;20.70;96.70;;;;;;5057812;28;20049;-81
2023/06/19 00:41:43;;;;;;;10.95;8.88;;;20.50;97.80;;;;;;5076050;28;20430;-81
2023/06/19 00:44:09;;;;;;;10.98;8.70;;;;;;;;;;5075902;28;20591;-77
2023/06/19 00:46:41;;;;;;;9.55;8.43;;;20.80;95.90;;;;;;5058108;28;20048;-81
2023/06/19 00:49:08;;;;;;;9.20;8.30;;;20.70;97.40;;;;;;5057766;28;20048;-81
2023/06/19 00:51:34;;;;;;;12.20;8.80;;;20.80;96.00;;;;;;5058091;28;20047;-81
2023/06/19 00:54:00;;;;;;;9.52;8.63;;;20.70;97.00;;;;;;5041743;28;20056;-85
2023/06/19 00:56:26;;;;;;;10.93;8.10;;;20.50;96.90;;;;;;5024421;28;20040;-83
2023/06/19 00:58:53;;;;;;;10.30;8.80;;;20.80;95.70;;;;;;5057345;28;20074;-79
2023/06/19 01:01:23;;;;;;;8.65;7.15;;;20.70;96.60;;;;;;5041088;28;20477;-85
2023/06/19 01:03:49;;;;;;;10.45;8.15;;;20.50;96.50;;;;;;5040578;28;20492;-78
2023/06/19 01:06:28;;;;;;;10.48;7.53;;;20.60;96.30;;;;;;5024292;28;20087;-81
2023/06/19 01:08:54;;;;;;;10.63;8.00;;;;;;;;;;5057269;28;20051;-81
2023/06/19 01:11:23;;;;;;;8.27;7.53;;;20.40;95.90;;;;;;5057589;28;20135;-85
2023/06/19 01:14:12;;;;;;;8.55;7.70;;;20.70;94.80;;;;;;5040669;28;20096;-86
2023/06/19 01:16:39;;;;;;;9.43;8.38;;;20.60;95.80;;;;;;5057164;28;20055;-86
2023/06/19 01:19:09;;;;;;;12.02;8.18;;;20.50;94.40;;;;;;5040561;28;20083;-86
2023/06/19 01:21:36;;;;;;;14.95;8.07;;;20.60;94.30;;;;;;5057084;28;20049;-88
2023/06/19 01:24:02;;;;;;;9.30;7.10;;;20.80;94.10;;;;;;5024356;28;20412;-84
2023/06/19 01:26:28;;;;;;;9.02;6.95;;;20.50;94.60;;;;;;5023911;28;20048;-88
2023/06/19 01:28:54;;;;;;;10.05;7.82;;;20.60;94.30;;;;;;5040217;28;20428;-87
2023/06/19 01:31:25;;;;;;;9.48;7.88;;;20.60;94.00;;;;;;5040194;28;20090;-88
2023/06/19 01:33:52;;;;;;;7.43;6.68;;;20.70;93.70;;;;;;5056881;28;20036;-87
2023/06/19 01:36:20;;;;;;;8.50;7.57;;;20.50;93.50;;;;;;5057002;28;20101;-86
2023/06/19 01:38:48;;;;;;;8.25;7.30;;;20.60;92.60;;;;;;5007488;28;20058;-88
2023/06/19 01:41:16;;;;;;;8.68;7.80;;;20.70;92.60;;;;;;5057112;28;20106;-88
2023/06/19 01:43:42;;;;;;;8.07;7.28;;;20.50;94.20;;;;;;5057282;28;20053;-88
2023/06/19 01:46:08;;;;;;;8.48;7.35;;;;;;;;;;5057152;28;20119;-88
2023/06/19 01:48:36;;;;;;;8.48;7.65;;;20.70;91.50;;;;;;5074764;28;20036;-77
2023/06/19 01:51:03;;;;;;;11.02;7.15;;;20.40;93.50;;;;;;5057322;28;20082;-82
2023/06/19 01:53:31;;;;;;;9.70;6.80;;;20.60;93.30;;;;;;5040488;28;20048;-84
2023/06/19 01:56:00;;;;;;;10.32;6.72;;;20.70;92.90;;;;;;5056726;28;20536;-85
2023/06/19 01:58:26;;;;;;;7.60;6.80;;;20.40;92.60;;;;;;5056788;28;20116;-81
2023/06/19 02:00:52;;;;;;;7.65;6.90;;;20.50;92.40;;;;;;5074424;28;20044;-85
2023/06/19 02:03:18;;;;;;;7.78;6.97;;;20.70;92.40;;;;;;5056940;28;20405;-79
2023/06/19 02:05:43;;;;;;;7.70;6.90;;;20.80;91.20;;;;;;5039493;28;20048;-87
2023/06/19 02:08:09;;;;;;;7.28;6.57;;;;;;;;;;5056333;28;20056;-83
2023/06/19 02:10:35;;;;;;;8.65;7.75;;;20.60;90.00;;;;;;5056578;28;20056;-84
2023/06/19 02:13:01;;;;;;;9.10;7.50;;;20.90;92.80;;;;;;5023925;28;20044;-84
2023/06/19 02:15:27;;;;;;;10.50;7.88;;;20.50;92.80;;;;;;5039946;28;20511;-88
2023/06/19 02:17:55;;;;;;;11.02;7.47;;;20.60;91.30;;;;;;5039483;28;20542;-85
2023/06/19 02:20:22;;;;;;;10.63;7.20;;;20.50;92.60;;;;;;5039418;28;20044;-87
2023/06/19 02:22:47;;;;;;;8.65;7.75;;;20.70;91.50;;;;;;5056292;28;20036;-88
2023/06/19 02:25:14;;;;;;;11.73;6.93;;;;;;;;;;5023018;28;20045;-89
2023/06/19 02:27:39;;;;;;;8.73;7.32;;;20.50;90.10;;;;;;5055842;28;20493;-86
2023/06/19 02:30:06;;;;;;;11.68;7.70;;;20.60;91.20;;;;;;5039639;28;20052;-85
2023/06/19 02:32:31;;;;;;;9.13;6.75;;;20.70;91.50;;;;;;5023034;28;20092;-88
2023/06/19 02:34:58;;;;;;;10.30;6.95;;;20.40;91.40;;;;;;5022636;28;20091;-87
2023/06/19 02:37:24;;;;;;;7.90;7.10;;;;;;;;;;5055899;28;21031;-88
2023/06/19 02:39:50;;;;;;;10.68;7.55;;;20.50;87.70;;;;;;5039005;28;20045;-87
2023/06/19 02:42:16;;;;;;;10.32;8.05;;;;;;;;;;5022575;28;20048;-84
2023/06/19 02:44:43;;;;;;;7.93;7.13;;;20.50;90.90;;;;;;5055414;28;20468;-85
2023/06/19 02:47:09;;;;;;;7.18;6.47;;;;;;;;;;5055667;28;20044;-83
2023/06/19 02:49:34;;;;;;;9.60;7.57;;;20.60;86.50;;;;;;5038943;28;20041;-83
2023/06/19 02:52:00;;;;;;;8.77;7.05;;;20.50;89.10;;;;;;5038894;28;20055;-86
2023/06/19 02:54:26;;;;;;;10.50;7.68;;;20.60;89.10;;;;;;5055558;28;20044;-88
2023/06/19 02:56:52;;;;;;;9.13;7.13;;;;;;;;;;5073500;28;20040;-81
2023/06/19 02:59:18;;;;;;;9.25;7.55;;;;;;;;;;5055454;28;20044;-81
2023/06/19 03:01:44;;;;;;;10.90;7.50;;;20.60;90.00;;;;;;5055069;28;20044;-80
2023/06/19 03:04:10;;;;;;;8.88;7.97;;;;;;;;;;5073285;28;20086;-82
2023/06/19 03:06:39;;;;;;;9.43;7.28;;;20.50;89.10;;;;;;5073451;28;20127;-79
2023/06/19 03:09:11;;;;;;;8.88;7.57;;;20.40;86.80;;;;;;5055237;28;20048;-81
2023/06/19 03:11:41;;;;;;;11.05;6.93;;;20.50;86.30;;;;;;5055525;28;20508;-82
2023/06/19 03:14:08;;;;;;;7.63;6.78;;;20.50;86.80;;;;;;5038729;28;20052;-80
2023/06/19 03:16:35;;;;;;;7.45;6.75;;;20.60;84.50;;;;;;5055787;28;20053;-81
2023/06/19 03:19:01;;;;;;;9.15;7.35;;;20.60;86.40;;;;;;5055328;28;20098;-79
2023/06/19 03:21:26;;;;;;;8.93;7.22;;;20.50;83.90;;;;;;5054137;28;20045;-81
2023/06/19 03:23:53;;;;;;;9.43;7.53;;;20.60;83.70;;;;;;5055020;28;20036;-81
2023/06/19 03:26:19;;;;;;;9.77;8.20;;;20.60;83.50;;;;;;5038473;28;20090;-81
2023/06/19 03:28:51;;;;;;;11.55;7.43;;;20.70;85.70;;;;;;5023737;28;20047;-77
2023/06/19 03:31:16;;;;;;;8.43;7.53;;;20.70;85.50;;;;;;5054936;28;20040;-81
2023/06/19 03:33:42;;;;;;;11.35;7.28;;;20.70;83.10;;;;;;5038382;28;20036;-83
2023/06/19 03:36:08;;;;;;;9.88;7.30;;;20.40;82.90;;;;;;5073271;28;20048;-83
2023/06/19 03:38:33;;;;;;;10.43;7.78;;;20.50;85.20;;;;;;5021672;28;20052;-83
2023/06/19 03:40:59;;;;;;;9.70;8.30;;;20.40;82.80;;;;;;5054900;28;20045;-84
2023/06/19 03:43:25;;;;;;;8.73;7.35;;;20.30;85.30;;;;;;5072956;28;20049;-86
2023/06/19 03:45:50;;;;;;;11.75;7.63;;;20.40;82.80;;;;;;5038129;28;20089;-85
2023/06/19 03:48:17;;;;;;;11.45;8.05;;;;;;;;;;5038294;28;20041;-82
2023/06/19 03:50:42;;;;;;;10.40;7.60;;;20.60;85.00;;;;;;5054756;28;20094;-83
2023/06/19 03:53:08;;;;;;;8.13;7.32;;;20.30;85.00;;;;;;5038327;28;20048;-82
2023/06/19 03:55:34;;;;;;;8.27;7.35;;;;;;;;;;5037930;28;20045;-80
2023/06/19 03:58:00;;;;;;;9.23;8.02;;;20.50;85.10;;;;;;5055119;28;20048;-82
2023/06/19 04:00:26;;;;;;;9.05;8.13;;;20.50;85.30;;;;;;5072700;28;20033;-81
2023/06/19 04:02:52;;;;;;;10.02;7.13;;;20.50;85.70;;;;;;5038136;28;20497;-81
2023/06/19 04:05:19;;;;;;;10.60;7.68;;;20.50;86.80;;;;;;5054707;28;20131;-82
2023/06/19 04:07:45;;;;;;;9.18;7.97;;;20.40;83.60;;;;;;5054529;28;20447;-83
2023/06/19 04:10:11;;;;;;;10.45;7.70;;;;;;;;;;5072806;28;20051;-81
2023/06/19 04:12:39;;;;;;;12.05;7.53;;;;;;;;;;5054572;28;20108;-82
2023/06/19 04:15:06;;;;;;;8.18;7.38;;;20.40;85.00;;;;;;5054776;28;20070;-81
2023/06/19 04:17:32;;;;;;;10.77;7.97;;;;;;;;;;5038051;28;20127;-80
2023/06/19 04:19:58;;;;;;;9.20;7.03;;;;;;;;;;5054735;28;20044;-78
2023/06/19 04:22:24;;;;;;;8.77;7.00;;;20.30;84.20;;;;;;5054499;28;20044;-79
2023/06/19 04:24:50;;;;;;;8.65;7.05;;;20.60;90.60;;;;;;5054515;28;20040;-80
2023/06/19 04:27:15;;;;;;;8.10;6.88;;;20.40;87.50;;;;;;5037862;28;20094;-82
2023/06/19 04:29:41;;;;;;;9.63;7.75;;;20.60;88.40;;;;;;5021491;28;20052;-79
2023/06/19 04:32:11;;;;;;;8.10;7.35;;;20.20;90.60;;;;;;5054664;28;20055;-80
2023/06/19 04:34:38;;;;;;;10.18;7.30;;;20.30;91.60;;;;;;5058391;28;20052;-83
2023/06/19 04:37:05;;;;;;;9.63;7.70;;;20.40;92.00;;;;;;5057876;28;20055;-84
2023/06/19 04:39:31;;;;;;;9.27;6.72;;;;;;;;;;5058383;28;20133;-81
2023/06/19 04:41:56;;;;;;;9.18;6.57;;;20.10;91.90;;;;;;5058870;28;20087;-81
2023/06/19 04:44:23;;;;;;;9.60;6.15;;;;;;;;;;5058519;28;20072;-83
2023/06/19 04:46:48;;;;;;;6.68;5.88;;;20.00;93.10;;;;;;5042219;28;20084;-86
2023/06/19 04:49:15;;;;;;;12.43;5.90;;;20.30;92.00;;;;;;5058635;28;20040;-82
2023/06/19 04:51:48;;;;;;;7.38;5.85;;;;;;;;;;5043931;28;20048;-80
2023/06/19 04:54:13;;;;;;;6.72;5.97;;;20.30;94.50;;;;;;5058184;28;20084;-84
2023/06/19 04:56:39;;;;;;;5.90;5.38;;;20.50;94.60;;;;;;5041736;28;20044;-82
2023/06/19 04:59:05;;;;;;;8.85;5.85;;;20.30;95.70;;;;;;5041568;28;20045;-82
2023/06/19 05:01:31;;;;;;;8.27;5.68;;;;;;;;;;5025084;28;20048;-83
2023/06/19 05:03:59;;;;;;;9.98;5.20;;;20.10;95.30;;;;;;5041406;28;20045;-79
2023/06/19 05:06:25;;;;;;;6.90;4.63;;;19.30;93.50;;;;;;5009450;28;20143;-83
2023/06/19 05:08:51;;;;;;;5.47;4.35;;;20.40;97.00;;;;;;5057823;28;20580;-80
2023/06/19 05:11:18;;;;;;;7.13;4.28;;;20.40;95.00;;;;;;5025051;28;20080;-85
2023/06/19 05:13:44;;;;;;;7.32;3.97;;;;;;;;;;5025395;28;20060;-77
2023/06/19 05:16:16;;;;;;;4.97;4.47;;;;;;;;;;5043042;28;20116;-83
2023/06/19 05:18:43;;;;;;;4.97;4.03;;;20.40;97.80;;;;;;5041396;28;20063;-79
2023/06/19 05:21:10;;;;;;;4.45;4.03;;;;;;;;;;5009002;28;20047;-80
2023/06/19 05:23:35;;;;;;;4.88;4.25;;;20.40;95.10;;;;;;5058146;28;20531;-80
2023/06/19 05:26:02;;;;;;;6.93;4.93;;;;;;;;;;5041159;28;20417;-79
2023/06/19 05:28:28;;;;;;;5.90;4.20;;;20.40;95.70;;;;;;5024971;28;20047;-79
2023/06/19 05:30:59;;;;;;;6.18;4.15;;;20.40;98.70;;;;;;5026473;28;20128;-79
2023/06/19 05:33:25;;;;;;;5.72;5.07;;;20.40;99.50;;;;;;5024801;28;20505;-78
2023/06/19 05:35:54;;;;;;;5.63;5.05;;;20.60;99.40;;;;;;5041861;28;20056;-80
2023/06/19 05:38:20;;;;;;;5.00;4.50;;;20.50;98.90;;;;;;5041420;28;20136;-83
2023/06/19 05:40:46;;;;;;;4.95;4.45;;;20.30;98.80;;;;;;5023909;28;20127;-85
2023/06/19 05:43:12;;;;;;;5.68;4.72;;;20.70;99.80;;;;;;5057138;28;20098;-82
2023/06/19 05:45:38;;;;;;;8.30;5.10;;;20.50;98.00;;;;;;5006541;28;20389;-82
2023/06/19 05:48:04;;;;;;;9.55;5.43;;;20.60;98.10;;;;;;5040401;28;20106;-77
2023/06/19 05:50:30;;;;;;;8.35;5.47;;;20.50;99.80;;;;;;5040710;28;20071;-80
2023/06/19 05:52:56;;;;;;;6.47;5.75;;;20.60;99.90;;;;;;5056572;28;20037;-82
2023/06/19 05:55:22;;;;;;;8.05;5.55;;;20.70;99.90;;;;;;5056453;28;20078;-83
2023/06/19 05:57:48;;;;;;;7.07;5.47;;;20.70;98.90;;;;;;5023946;28;20036;-86
2023/06/19 06:00:15;;;;;;;10.10;7.10;;;20.50;99.90;;;;;;5040781;28;20056;-85
2023/06/19 06:02:40;;;;;;;8.88;6.40;;;20.80;99.90;;;;;;5039876;28;20053;-81
2023/06/19 06:05:08;;;;;;;9.93;8.30;;;20.60;99.40;;;;;;5040561;28;20059;-81
2023/06/19 06:07:34;;;;;;;10.48;7.72;;;20.60;99.90;;;;;;5056306;28;20056;-80
2023/06/19 06:10:00;;;;;;;10.90;8.32;;;20.60;99.90;;;;;;5039642;28;20048;-82
2023/06/19 06:12:26;;;;;;;10.77;9.43;;;20.70;99.90;;;;;;5056240;28;20043;-77
2023/06/19 06:14:51;;;;;;;12.10;10.57;;;20.40;99.90;;;;;;5039653;28;20085;-83
2023/06/19 06:17:17;;;;;;;11.18;9.40;;;20.60;99.90;;;;;;5039815;28;20048;-81
2023/06/19 06:19:43;;;;;;;11.75;10.07;;;20.70;99.90;;;;;;5039031;28;20131;-87
2023/06/19 06:22:08;;;;;;;12.05;9.25;;;20.60;99.90;;;;;;5039546;28;20045;-77
2023/06/19 06:24:34;;;;;;;13.15;9.43;;;20.70;99.90;;;;;;5039009;28;20051;-79
2023/06/19 06:27:00;;;;;;;11.85;10.43;;;20.70;99.90;;;;;;5039404;28;20052;-87
2023/06/19 06:29:28;;;;;;;14.63;11.05;;;20.60;99.90;;;;;;5074249;28;20378;-83
2023/06/19 06:32:04;;;;;;;13.30;10.60;;;20.70;99.90;;;;;;5039231;28;20094;-80
2023/06/19 06:34:30;;;;;;;12.82;11.00;;;20.70;99.90;;;;;;5055838;28;20063;-77
2023/06/19 06:36:56;;;;;;;12.85;10.95;;;;;;;;;;5055902;28;20036;-80
2023/06/19 06:39:22;;;;;;;16.45;11.55;;;20.60;99.90;;;;;;5055947;28;20447;-78
2023/06/19 06:41:47;;;;;;;17.13;11.90;;;20.90;99.90;;;;;;5039416;28;20480;-76
2023/06/19 06:44:13;;;;;;;13.15;11.68;;;20.70;99.90;;;;;;5039483;28;20048;-77
2023/06/19 06:46:39;;;;;;;15.65;11.23;;;20.80;99.90;;;;;;5038797;28;20048;-76
2023/06/19 06:49:04;;;;;;;14.98;12.90;;;20.60;99.90;;;;;;5022610;28;20139;-77
2023/06/19 06:51:30;;;;;;;17.52;12.65;;;20.70;99.90;;;;;;5039846;28;20036;-86
2023/06/19 06:53:56;;;;;;;18.35;13.23;;;20.90;99.90;;;;;;5023289;28;20048;-86
2023/06/19 06:56:21;;;;;;;16.90;12.77;;;20.70;99.90;;;;;;5039508;28;20052;-84
2023/06/19 06:58:47;;;;;;;18.75;13.77;;;20.80;99.90;;;;;;5039648;28;20565;-78
2023/06/19 07:01:13;;;;;;;20.02;14.30;;;20.60;99.90;;;;;;5039272;28;20097;-86
2023/06/19 07:03:39;;;;;;;20.52;14.60;;;20.60;99.90;;;;;;5038720;28;20067;-83
2023/06/19 07:06:05;;;;;;;22.30;14.70;;;20.70;99.90;;;;;;5022291;28;20047;-83
2023/06/19 07:08:31;;;;;;;27.13;16.33;;;;;;;;;;5055370;28;20048;-77
2023/06/19 07:10:57;;;;;;;26.77;16.10;;;20.70;99.90;;;;;;5073078;28;20623;-78
2023/06/19 07:13:23;;;;;;;25.95;17.50;;;20.70;99.90;;;;;;5038660;28;20123;-83
2023/06/19 07:15:49;;;;;;;29.67;19.00;;;20.50;99.90;;;;;;5038599;28;20390;-86
2023/06/19 07:18:15;;;;;;;32.72;19.15;;;20.40;99.90;;;;;;5038563;28;20041;-83
2023/06/19 07:20:41;;;;;;;29.27;18.23;;;20.20;99.90;;;;;;5038419;28;20048;-86
2023/06/19 07:23:07;;;;;;;30.67;18.98;;;20.30;99.90;;;;;;5038863;28;20090;-79
2023/06/19 07:25:34;;;;;;;30.60;17.63;;;;;;;;;;5055198;28;20048;-80
2023/06/19 07:28:01;;;;;;;28.45;17.45;;;20.50;99.90;;;;;;5038638;28;20122;-84
2023/06/19 07:30:27;;;;;;;25.10;16.77;;;20.30;99.90;;;;;;5038924;28;20154;-80
2023/06/19 07:32:53;;;;;;;22.00;15.93;;;;;;;;;;5038531;28;20062;-78
2023/06/19 07:35:18;;;;;;;26.52;16.60;;;20.30;99.90;;;;;;5038526;28;20047;-78
2023/06/19 07:37:45;;;;;;;22.98;15.00;;;20.30;99.90;;;;;;5039354;28;20052;-83
2023/06/19 07:40:11;;;;;;;20.00;14.77;;;20.10;99.90;;;;;;5055835;28;20036;-78
2023/06/19 07:42:37;;;;;;;23.52;15.75;;;20.40;99.90;;;;;;5038516;28;20063;-79
2023/06/19 07:45:03;;;;;;;25.35;17.40;;;20.20;99.90;;;;;;5039106;28;20473;-80
2023/06/19 07:47:29;;;;;;;23.40;16.73;;;20.30;99.90;;;;;;5054928;28;20055;-79
2023/06/19 07:49:55;;;;;;;22.48;15.27;;;20.40;99.90;;;;;;5038483;28;20067;-78
2023/06/19 07:52:21;;;;;;;27.80;16.58;;;20.30;99.90;;;;;;5038414;28;20527;-83
2023/06/19 07:54:55;;;;;;;24.05;16.10;;;20.40;99.90;;;;;;5054787;28;20040;-78
2023/06/19 07:57:21;;;;;;;24.92;14.75;;;20.20;99.90;;;;;;5038592;28;20082;-82
2023/06/19 07:59:49;;;;;;;23.85;15.73;;;20.40;99.90;;;;;;5038564;28;20040;-82
2023/06/19 08:02:15;;;;;;;24.98;16.08;;;;;;;;;;5038077;28;20040;-81
2023/06/19 08:04:41;;;;;;;25.25;16.23;;;20.40;99.90;;;;;;5054583;28;20040;-82
2023/06/19 08:07:10;;;;;;;24.10;14.27;;;;;;;;;;5072597;28;20052;-82
2023/06/19 08:09:36;;;;;;;20.70;13.05;;;19.80;99.90;;;;;;5041164;28;20056;-81
2023/06/19 08:12:02;;;;;;;14.48;10.93;;;20.10;99.90;;;;;;5041021;28;20559;-81
2023/06/19 08:14:28;;;;;;;17.83;11.68;;;;;;;;;;5057292;28;20036;-81
2023/06/19 08:16:55;;;;;;;18.02;11.30;;;20.40;99.90;;;;;;5024008;28;20044;-82
2023/06/19 08:19:21;;;;;;;13.15;9.93;;;;;;;;;;5040404;28;20042;-82
2023/06/19 08:21:47;;;;;;;15.23;11.00;;;;;;;;;;5057468;28;20570;-82
2023/06/19 08:24:13;;;;;;;16.65;10.82;;;;;;;;;;5040306;28;20047;-81
2023/06/19 08:26:39;;;;;;;18.70;10.98;;;20.10;99.90;;;;;;5040445;28;20049;-80
2023/06/19 08:29:05;;;;;;;16.20;11.18;;;;;;;;;;5024688;28;20109;-81
2023/06/19 08:31:32;;;;;;;14.70;10.93;;;;;;;;;;5040334;28;20048;-81
2023/06/19 08:33:58;;;;;;;17.50;11.35;;;;;;;;;;5056702;28;20136;-81
2023/06/19 08:36:24;;;;;;;13.80;10.75;;;;;;;;;;5023755;28;20481;-81
2023/06/19 08:38:51;;;;;;;16.23;9.70;;;20.30;99.90;;;;;;5024230;28;20454;-81
2023/06/19 08:41:21;;;;;;;14.48;10.25;;;20.20;99.90;;;;;;5057145;28;20508;-81
2023/06/19 08:43:47;;;;;;;15.23;10.18;;;20.00;99.90;;;;;;5024203;28;20056;-81
2023/06/19 08:46:17;;;;;;;14.10;9.65;;;20.30;99.90;;;;;;5040306;28;20041;-81
2023/06/19 08:48:45;;;;;;;15.95;11.40;;;20.10;99.90;;;;;;5056717;28;20056;-81
2023/06/19 08:51:12;;;;;;;13.10;9.80;;;20.30;99.90;;;;;;5040266;28;20075;-83
2023/06/19 08:53:48;;;;;;;11.32;9.15;;;20.10;99.90;;;;;;5023750;28;20566;-79
2023/06/19 08:56:14;;;;;;;12.65;9.60;;;20.10;99.90;;;;;;5040047;28;20409;-82
2023/06/19 08:58:40;;;;;;;13.15;8.77;;;;;;;;;;5040612;28;20055;-82
2023/06/19 09:01:06;;;;;;;11.20;9.65;;;20.30;99.90;;;;;;5040012;28;20079;-82
2023/06/19 09:03:31;;;;;;;9.35;8.27;;;20.40;99.90;;;;;;5056516;28;20048;-83
2023/06/19 09:06:03;;;;;;;17.52;8.70;;;20.30;99.90;;;;;;5023583;28;20070;-82
2023/06/19 09:08:29;;;;;;;9.30;7.88;;;20.30;99.90;;;;;;5018663;28;1122971;-81
2023/06/19 09:11:03;;;;;;;10.93;8.57;;;20.40;99.90;;;;;;5058176;28;20447;-81
2023/06/19 09:13:30;;;;;;;11.52;9.65;;;20.20;99.90;;;;;;5057762;28;20044;-81
2023/06/19 09:16:07;;;;;;;14.13;8.98;;;20.20;99.90;;;;;;5041525;28;20040;-81
2023/06/19 09:18:45;;;;;;;11.57;8.32;;;19.80;99.90;;;;;;5041487;28;20504;-82
2023/06/19 09:21:18;;;;;;;11.68;8.80;;;20.00;99.90;;;;;;5057775;28;20044;-82
2023/06/19 09:23:47;;;;;;;12.43;9.13;;;20.00;99.90;;;;;;5041062;28;20528;-83
2023/06/19 09:26:18;;;;;;;14.93;9.18;;;20.10;99.90;;;;;;5040516;28;20056;-82
2023/06/19 09:28:44;;;;;;;10.68;9.00;;;;;;;;;;5041336;28;20048;-82
2023/06/19 09:31:10;;;;;;;13.02;10.13;;;20.00;99.90;;;;;;5041080;28;20084;-82
2023/06/19 09:33:37;;;;;;;15.43;9.77;;;20.10;99.90;;;;;;5040889;28;20109;-82
2023/06/19 09:36:06;;;;;;;13.63;10.55;;;20.00;99.90;;;;;;5057302;28;20079;-82
2023/06/19 09:38:35;;;;;;;14.95;10.05;;;20.10;99.90;;;;;;5040952;28;20048;-81
2023/06/19 09:41:03;;;;;;;13.45;9.95;;;20.10;99.90;;;;;;5057198;28;20400;-83
2023/06/19 09:43:42;;;;;;;12.18;9.73;;;20.10;99.90;;;;;;5039872;28;20052;-82
2023/06/19 09:46:09;;;;;;;12.60;10.05;;;20.00;99.90;;;;;;5057460;28;20044;-82
2023/06/19 09:48:42;;;;;;;18.33;9.98;;;20.00;99.90;;;;;;5023863;28;20050;-81
2023/06/19 09:51:18;;;;;;;19.55;10.27;;;19.90;99.90;;;;;;5056953;28;20084;-82
2023/06/19 09:53:49;;;;;;;11.95;10.30;;;20.00;99.90;;;;;;5040331;28;20127;-82
2023/06/19 09:56:21;;;;;;;17.10;10.98;;;19.90;99.90;;;;;;5039938;28;20040;-82
2023/06/19 09:58:50;;;;;;;16.42;10.88;;;19.90;99.90;;;;;;5056795;28;20093;-83
2023/06/19 10:01:18;;;;;;;14.13;10.23;;;19.90;99.90;;;;;;5039447;28;20052;-82
2023/06/19 10:03:45;;;;;;;16.95;11.15;;;20.10;99.90;;;;;;5057069;28;20052;-83
2023/06/19 10:06:19;;;;;;;15.88;10.45;;;20.10;99.90;;;;;;5040758;28;20587;-83
2023/06/19 10:08:47;;;;;;;17.60;11.85;;;;;;;;;;5039548;28;20520;-82
2023/06/19 10:11:13;;;;;;;16.13;11.32;;;20.20;99.90;;;;;;5056135;28;20044;-82
2023/06/19 10:13:43;;;;;;;13.65;11.23;;;20.20;99.90;;;;;;5056477;28;20045;-82
2023/06/19 10:16:21;;;;;;;17.92;11.65;;;20.30;99.90;;;;;;5055990;28;20044;-82
2023/06/19 10:18:48;;;;;;;15.75;11.25;;;20.00;99.90;;;;;;5056439;28;20037;-81
2023/06/19 10:21:18;;;;;;;16.00;10.98;;;20.50;99.90;;;;;;5074021;28;20049;-79
2023/06/19 10:23:57;;;;;;;15.75;9.73;;;20.50;99.90;;;;;;5038863;28;20068;-82
2023/06/19 10:26:37;;;;;;;13.75;10.60;;;20.20;99.90;;;;;;5039598;28;20102;-82
2023/06/19 10:29:15;;;;;;;13.40;10.35;;;20.40;99.90;;;;;;5056428;28;20041;-82
2023/06/19 10:31:40;;;;;;;12.10;9.63;;;20.20;99.90;;;;;;5055468;28;20083;-80
2023/06/19 10:34:08;;;;;;;16.48;10.65;;;20.20;99.90;;;;;;5055648;28;20087;-82
2023/06/19 10:36:40;;;;;;;;;;;20.20;99.90;;;;;;5040482;28;20040;-80
2023/06/19 10:39:06;;;;;;;10.73;9.63;;;20.40;99.90;;;;;;5039434;28;19920;-82
2023/06/19 10:41:34;;;;;;;18.83;11.13;;;20.40;99.90;;;;;;5055834;28;20045;-80
2023/06/19 10:44:04;;;;;;;13.38;11.10;;;20.20;99.90;;;;;;5038925;28;20045;-81
2023/06/19 10:46:33;;;;;;;14.50;11.32;;;20.40;99.90;;;;;;5038954;28;20040;-80
2023/06/19 10:49:04;;;;;;;16.33;11.00;;;20.40;99.90;;;;;;5055793;28;20049;-82
2023/06/19 10:51:42;;;;;;;16.70;11.02;;;20.40;99.90;;;;;;5055907;28;20132;-84
2023/06/19 10:54:08;;;;;;;17.25;11.57;;;20.50;99.90;;;;;;5056440;28;20044;-83
2023/06/19 10:56:34;;;;;;;16.52;11.05;;;20.50;99.90;;;;;;5006450;28;20481;-84
2023/06/19 10:59:14;;;;;;;13.95;11.75;;;20.40;99.90;;;;;;5023688;28;20040;-82
2023/06/19 11:01:42;;;;;;;17.10;11.90;;;20.70;99.90;;;;;;5055720;28;20041;-82
2023/06/19 11:04:11;;;;;;;16.23;11.35;;;20.80;99.80;;;;;;5039279;28;20043;-83
2023/06/19 11:06:38;;;;;;;17.80;11.55;;;20.70;98.80;;;;;;5055569;28;20052;-80
2023/06/19 11:09:11;;;;;;;17.53;12.67;;;20.60;99.60;;;;;;5055695;28;20162;-86
2023/06/19 11:11:39;;;;;;;15.23;12.40;;;20.60;99.70;;;;;;5055535;28;20117;-82
2023/06/19 11:14:07;;;;;;;15.57;11.32;;;20.80;99.90;;;;;;5022269;28;20094;-82
2023/06/19 11:16:34;;;;;;;15.98;11.75;;;20.70;99.90;;;;;;5039316;28;20091;-80
2023/06/19 11:19:01;;;;;;;18.05;12.95;;;20.60;99.70;;;;;;5073316;28;20053;-78
2023/06/19 11:21:34;;;;;;;16.48;12.27;;;20.80;99.70;;;;;;5055998;28;20036;-83
2023/06/19 11:24:01;;;;;;;19.20;12.70;;;20.70;98.70;;;;;;5055528;28;20095;-80
2023/06/19 11:26:27;;;;;;;21.85;10.75;;;21.00;99.30;;;;;;5039790;28;20048;-83
2023/06/19 11:28:53;;;;;;;13.43;11.02;;;20.80;98.20;;;;;;5039394;28;20083;-81
2023/06/19 11:31:25;;;;;;;14.38;12.18;;;20.60;98.80;;;;;;5039290;28;20040;-82
2023/06/19 11:33:59;;;;;;;19.17;11.50;;;21.00;98.80;;;;;;5039507;28;20041;-81
2023/06/19 11:36:25;;;;;;;18.75;11.52;;;21.00;97.90;;;;;;5055368;28;20452;-82
2023/06/19 11:38:57;;;;;;;18.50;11.88;;;21.20;97.10;;;;;;5055440;28;20040;-82
2023/06/19 11:41:27;;;;;;;14.10;11.25;;;21.00;97.20;;;;;;5055346;28;20048;-79
2023/06/19 11:44:04;;;;;;;18.65;11.25;;;21.40;97.70;;;;;;5058032;28;20048;-78
2023/06/19 11:46:37;;;;;;;16.30;12.35;;;21.40;96.50;;;;;;5059532;28;20044;-85
2023/06/19 11:49:19;;;;;;;16.30;11.43;;;19.60;95.10;;;;;;5059542;28;20044;-84
2023/06/19 11:51:45;;;;;;;29.17;14.63;;;19.40;93.30;;;;;;5027311;28;20045;-81
2023/06/19 11:54:14;;;;;;;20.65;13.48;;;21.50;95.20;;;;;;5059101;28;20497;-85
2023/06/19 11:56:40;;;;;;;21.33;14.52;;;21.70;95.20;;;;;;5042901;28;20556;-82
2023/06/19 11:59:06;;;;;;;18.13;12.43;;;21.60;94.40;;;;;;5059757;28;20044;-82
2023/06/19 12:01:34;;;;;;;22.02;13.95;;;21.40;93.60;;;;;;5077396;28;20036;-80
2023/06/19 12:04:00;;;;;;;13.65;11.18;;;21.60;94.40;;;;;;5058973;28;20166;-79
2023/06/19 12:06:27;;;;;;;15.60;11.13;;;21.70;93.40;;;;;;5058571;28;20049;-82
2023/06/19 12:08:54;;;;;;;14.43;11.07;;;21.80;93.10;;;;;;5055743;28;20044;-81
2023/06/19 12:11:20;;;;;;;13.73;11.35;;;21.80;91.20;;;;;;5059034;28;20088;-81
2023/06/19 12:13:46;;;;;;;15.52;13.00;;;21.70;91.60;;;;;;5042218;28;20087;-82
2023/06/19 12:16:13;;;;;;;14.55;10.40;;;21.90;91.60;;;;;;5076832;28;20461;-82
2023/06/19 12:18:39;;;;;;;15.77;11.70;;;;;;;;;;5058806;28;20504;-82
2023/06/19 12:21:06;;;;;;;17.70;12.20;;;21.80;90.00;;;;;;5058506;28;20488;-81
2023/06/19 12:23:31;;;;;;;15.10;11.05;;;22.00;90.90;;;;;;5059238;28;20036;-83
2023/06/19 12:25:57;;;;;;;17.40;10.82;;;21.90;89.20;;;;;;5058299;28;20390;-84
2023/06/19 12:28:23;;;;;;;17.35;11.70;;;22.10;90.30;;;;;;5041944;28;20076;-82
2023/06/19 12:30:52;;;;;;;15.32;11.35;;;21.90;90.20;;;;;;5058586;28;20465;-82
2023/06/19 12:33:22;;;;;;;15.82;11.90;;;22.00;90.10;;;;;;5076354;28;20056;-82
2023/06/19 12:35:47;;;;;;;15.60;11.55;;;22.10;87.20;;;;;;5058376;28;20051;-79
2023/06/19 12:38:14;;;;;;;12.63;10.35;;;22.20;88.70;;;;;;5058422;28;20044;-81
2023/06/19 12:40:40;;;;;;;17.55;10.60;;;22.10;90.40;;;;;;5042039;28;20075;-85
2023/06/19 12:43:07;;;;;;;15.77;10.48;;;22.20;88.80;;;;;;5042069;28;20048;-82
2023/06/19 12:45:33;;;;;;;17.98;11.45;;;22.50;88.50;;;;;;5058263;28;20048;-85
2023/06/19 12:47:58;;;;;;;16.83;11.75;;;22.50;88.30;;;;;;5025272;28;20041;-79
2023/06/19 12:50:24;;;;;;;13.68;9.88;;;22.40;90.20;;;;;;5061962;28;20036;-82